createdAt,value
2022-09-23T00:01:27.263Z,97914.20
2022-09-23T00:03:55.403Z,97914.39
2022-09-23T00:06:24.212Z,97911.31
2022-09-23T00:08:52.675Z,97907.33
2022-09-23T00:11:23.733Z,97907.33
2022-09-23T00:13:54.422Z,97905.80
2022-09-23T00:16:28.708Z,97905.19
2022-09-23T00:18:56.988Z,97902.41
2022-09-23T00:21:25.351Z,97903.67
2022-09-23T00:23:53.556Z,97899.76
2022-09-23T00:26:22.839Z,97901.44
2022-09-23T00:28:51.177Z,97898.84
2022-09-23T00:31:24.931Z,97898.38
2022-09-23T00:33:57.647Z,97897.73
2022-09-23T00:36:27.010Z,97897.03
2022-09-23T00:38:55.132Z,97894.70
2022-09-23T00:41:24.433Z,97891.39
2022-09-23T00:43:55.712Z,97893.64
2022-09-23T00:46:26.401Z,97894.55
2022-09-23T00:49:02.697Z,97901.58
2022-09-23T00:51:35.380Z,97900.63
2022-09-23T00:54:03.869Z,97899.48
2022-09-23T00:56:33.153Z,97900.66
2022-09-23T00:59:02.176Z,97902.26
2022-09-23T01:01:30.303Z,97908.14
2022-09-23T01:03:59.161Z,97907.88
2022-09-23T01:06:27.154Z,97905.14
2022-09-23T01:08:55.076Z,97909.30
2022-09-23T01:11:23.659Z,97907.23
2022-09-23T01:14:13.398Z,97910.89
2022-09-23T01:16:54.410Z,97911.35
2022-09-23T01:19:40.560Z,97911.81
2022-09-23T01:22:39.396Z,97913.33
2022-09-23T01:25:31.929Z,97917.42
2022-09-23T01:28:09.359Z,97918.70
2022-09-23T01:31:18.876Z,97922.27
2022-09-23T01:34:01.750Z,97922.23
2022-09-23T01:36:39.960Z,97920.73
2022-09-23T01:39:10.916Z,97921.84
2022-09-23T01:41:54.071Z,97921.42
2022-09-23T01:44:35.081Z,97921.35
2022-09-23T01:47:19.256Z,97923.35
2022-09-23T01:50:29.592Z,97922.63
2022-09-23T01:53:04.718Z,97921.48
2022-09-23T01:55:35.805Z,97924.59
2022-09-23T01:58:10.311Z,97925.31
2022-09-23T02:00:44.118Z,97925.22
2022-09-23T02:03:17.919Z,97921.71
2022-09-23T02:05:51.964Z,97924.92
2022-09-23T02:08:29.551Z,97923.66
2022-09-23T02:11:15.673Z,97925.25
2022-09-23T02:13:49.747Z,97921.83
2022-09-23T02:16:23.867Z,97925.09
2022-09-23T02:19:11.628Z,97923.83
2022-09-23T02:21:52.519Z,97921.37
2022-09-23T02:24:26.039Z,97920.16
2022-09-23T02:27:04.025Z,97923.34
2022-09-23T02:29:58.474Z,97921.20
2022-09-23T02:33:04.254Z,97918.66
2022-09-23T02:35:41.264Z,97926.55
2022-09-23T02:38:38.466Z,97919.17
2022-09-23T02:41:27.928Z,97915.19
2022-09-23T02:44:02.222Z,97919.65
2022-09-23T02:46:30.853Z,97916.56
2022-09-23T02:49:29.575Z,97915.35
2022-09-23T02:52:04.998Z,97918.06
2022-09-23T02:54:33.658Z,97918.06
2022-09-23T02:57:06.225Z,97923.41
2022-09-23T02:59:36.036Z,97926.90
2022-09-23T03:02:13.625Z,97929.59
2022-09-23T03:04:53.692Z,97934.10
2022-09-23T03:07:33.536Z,97930.61
2022-09-23T03:10:16.324Z,97932.42
2022-09-23T03:12:47.800Z,97931.19
2022-09-23T03:15:27.013Z,97926.99
2022-09-23T03:18:25.585Z,97924.82
2022-09-23T03:21:03.352Z,97929.36
2022-09-23T03:23:36.783Z,97928.42
2022-09-23T03:26:14.110Z,97929.02
2022-09-23T03:28:45.271Z,97927.82
2022-09-23T03:31:15.503Z,97926.17
2022-09-23T03:33:55.314Z,97927.66
2022-09-23T03:36:47.673Z,97927.83
2022-09-23T03:39:20.810Z,97930.81
2022-09-23T03:41:53.612Z,97931.36
2022-09-23T03:44:22.027Z,97924.65
2022-09-23T03:46:50.270Z,97921.89
2022-09-23T03:49:28.934Z,97918.00
2022-09-23T03:51:56.907Z,97915.35
2022-09-23T03:54:25.360Z,97918.45
2022-09-23T03:56:53.629Z,97915.81
2022-09-23T03:59:23.065Z,97915.65
2022-09-23T04:01:51.186Z,97915.96
2022-09-23T04:04:19.220Z,97911.26
2022-09-23T04:06:47.269Z,97912.88
2022-09-23T04:09:15.350Z,97909.10
2022-09-23T04:11:43.414Z,97908.45
2022-09-23T04:14:12.297Z,97907.23
2022-09-23T04:16:40.326Z,97910.31
2022-09-23T04:19:11.731Z,97914.53
2022-09-23T04:21:40.741Z,97912.03
2022-09-23T04:24:09.328Z,97911.91
2022-09-23T04:26:38.996Z,97913.52
2022-09-23T04:29:07.806Z,97911.42
2022-09-23T04:31:36.613Z,97912.77
2022-09-23T04:34:04.820Z,97912.56
2022-09-23T04:36:33.010Z,97910.64
2022-09-23T04:39:01.787Z,97912.03
2022-09-23T04:41:29.834Z,97914.33
2022-09-23T04:44:05.306Z,97916.25
2022-09-23T04:46:36.192Z,97921.45
2022-09-23T04:49:10.103Z,97924.73
2022-09-23T04:51:43.989Z,97916.63
2022-09-23T04:54:15.040Z,97914.70
2022-09-23T04:56:43.039Z,97915.77
2022-09-23T04:59:11.305Z,97915.77
2022-09-23T05:01:39.637Z,97911.29
2022-09-23T05:04:10.702Z,97912.79
2022-09-23T05:06:38.683Z,97911.23
2022-09-23T05:09:08.473Z,97915.09
2022-09-23T05:11:36.552Z,97912.62
2022-09-23T05:14:04.553Z,97910.81
2022-09-23T05:16:32.914Z,97910.05
2022-09-23T05:19:02.947Z,97909.48
2022-09-23T05:21:31.397Z,97907.89
2022-09-23T05:24:00.932Z,97906.27
2022-09-23T05:26:31.458Z,97907.30
2022-09-23T05:29:00.379Z,97906.16
2022-09-23T05:31:30.451Z,97909.35
2022-09-23T05:34:01.005Z,97913.61
2022-09-23T05:36:36.908Z,97919.25
2022-09-23T05:39:07.955Z,97924.91
2022-09-23T05:41:36.496Z,97927.86
2022-09-23T05:44:04.898Z,97922.17
2022-09-23T05:46:33.737Z,97923.63
2022-09-23T05:49:03.631Z,97927.60
2022-09-23T05:51:34.459Z,97930.05
2022-09-23T05:54:04.371Z,97931.63
2022-09-23T05:56:34.288Z,97928.91
2022-09-23T05:59:04.274Z,97927.92
2022-09-23T06:01:35.419Z,97926.59
2022-09-23T06:04:06.151Z,97929.30
2022-09-23T06:06:37.818Z,97925.71
2022-09-23T06:09:07.994Z,97923.95
2022-09-23T06:11:36.505Z,97923.04
2022-09-23T06:14:05.251Z,97926.09
2022-09-23T06:16:37.607Z,97931.27
2022-09-23T06:19:06.889Z,97928.55
2022-09-23T06:21:40.488Z,97925.95
2022-09-23T06:24:09.865Z,97925.52
2022-09-23T06:26:38.438Z,97923.87
2022-09-23T06:29:14.662Z,97921.58
2022-09-23T06:31:43.599Z,97923.74
2022-09-23T06:34:14.627Z,97920.43
2022-09-23T06:36:46.240Z,97918.60
2022-09-23T06:39:15.669Z,97920.35
2022-09-23T06:41:46.180Z,97921.63
2022-09-23T06:44:15.798Z,97921.42
2022-09-23T06:46:44.695Z,97922.73
2022-09-23T06:49:13.474Z,97923.52
2022-09-23T06:51:47.714Z,97924.73
2022-09-23T06:54:15.658Z,97921.98
2022-09-23T06:56:47.536Z,97923.20
2022-09-23T06:59:17.154Z,97920.51
2022-09-23T07:01:47.831Z,97924.27
2022-09-23T07:04:16.673Z,97922.58
2022-09-23T07:06:45.172Z,97920.11
2022-09-23T07:09:14.309Z,97921.32
2022-09-23T07:11:42.487Z,97921.92
2022-09-23T07:14:12.079Z,97921.81
2022-09-23T07:16:40.416Z,97922.86
2022-09-23T07:19:08.864Z,97917.88
2022-09-23T07:21:37.891Z,97917.46
2022-09-23T07:24:06.566Z,97917.66
2022-09-23T07:26:35.426Z,97915.38
2022-09-23T07:29:05.323Z,97912.09
2022-09-23T07:31:39.487Z,97906.55
2022-09-23T07:34:11.966Z,97909.52
2022-09-23T07:36:41.461Z,97911.61
2022-09-23T07:39:14.926Z,97910.04
2022-09-23T07:41:44.703Z,97906.60
2022-09-23T07:44:13.097Z,97902.39
2022-09-23T07:46:41.828Z,97907.80
2022-09-23T07:49:10.741Z,97903.40
2022-09-23T07:51:43.295Z,97901.36
2022-09-23T07:54:14.956Z,97897.64
2022-09-23T07:56:44.188Z,97897.25
2022-09-23T07:59:17.254Z,97901.25
2022-09-23T08:01:55.028Z,97898.35
2022-09-23T08:04:30.810Z,97892.79
2022-09-23T08:07:02.108Z,97894.23
2022-09-23T08:09:34.143Z,97895.81
2022-09-23T08:12:02.470Z,97898.86
2022-09-23T08:14:31.732Z,97897.09
2022-09-23T08:16:59.875Z,97895.07
2022-09-23T08:19:28.200Z,97894.19
2022-09-23T08:21:58.383Z,97895.93
2022-09-23T08:24:26.650Z,97893.21
2022-09-23T08:26:55.050Z,97889.77
2022-09-23T08:29:25.449Z,97886.09
2022-09-23T08:31:54.650Z,97885.89
2022-09-23T08:34:27.655Z,97886.67
2022-09-23T08:36:57.930Z,97879.70
2022-09-23T08:39:26.448Z,97878.89
2022-09-23T08:41:58.467Z,97875.69
2022-09-23T08:44:42.853Z,97867.82
2022-09-23T08:47:21.548Z,97866.20
2022-09-23T08:49:55.937Z,97864.75
2022-09-23T08:52:32.342Z,97868.04
2022-09-23T08:55:04.013Z,97870.39
2022-09-23T08:58:24.962Z,97864.19
2022-09-23T09:01:07.016Z,97867.58
2022-09-23T09:03:45.250Z,97867.68
2022-09-23T09:06:21.211Z,97869.13
2022-09-23T09:08:57.361Z,97865.19
2022-09-23T09:11:34.425Z,97862.70
2022-09-23T09:14:31.902Z,97867.27
2022-09-23T09:17:31.802Z,97881.27
2022-09-23T09:20:15.051Z,97865.45
2022-09-23T09:22:52.863Z,97871.39
2022-09-23T09:25:49.403Z,97867.69
2022-09-23T09:28:31.184Z,97863.30
2022-09-23T09:31:06.337Z,97859.80
2022-09-23T09:34:16.888Z,97856.34
2022-09-23T09:36:51.858Z,97853.48
2022-09-23T09:39:25.988Z,97856.01
2022-09-23T09:41:59.105Z,97849.36
2022-09-23T09:44:59.330Z,97847.45
2022-09-23T09:48:05.252Z,97844.53
2022-09-23T09:50:46.083Z,97845.71
2022-09-23T09:53:22.087Z,97849.20
2022-09-23T09:56:13.533Z,97848.95
2022-09-23T09:58:59.669Z,97839.58
2022-09-23T10:01:31.657Z,97836.69
2022-09-23T10:04:05.756Z,97836.39
2022-09-23T10:06:35.900Z,97836.36
2022-09-23T10:09:21.758Z,97842.83
2022-09-23T10:12:18.871Z,97852.77
2022-09-23T10:14:51.974Z,97847.80
2022-09-23T10:17:28.613Z,97849.81
2022-09-23T10:20:09.322Z,97852.17
2022-09-23T10:22:42.632Z,97857.45
2022-09-23T10:25:24.835Z,97854.08
2022-09-23T10:27:53.418Z,97850.62
2022-09-23T10:30:24.725Z,97852.38
2022-09-23T10:32:58.545Z,97850.58
2022-09-23T10:35:28.308Z,97845.70
2022-09-23T10:37:59.159Z,97839.66
2022-09-23T10:40:49.265Z,97841.00
2022-09-23T10:43:51.196Z,97839.30
2022-09-23T10:46:44.968Z,97831.55
2022-09-23T10:49:35.670Z,97824.85
2022-09-23T10:52:22.417Z,97828.16
2022-09-23T10:55:16.288Z,97825.52
2022-09-23T10:57:57.872Z,97820.38
2022-09-23T11:00:41.128Z,97826.02
2022-09-23T11:03:33.649Z,97825.20
2022-09-23T11:06:04.699Z,97826.17
2022-09-23T11:08:51.936Z,97820.70
2022-09-23T11:11:48.544Z,97817.52
2022-09-23T11:14:22.669Z,97813.29
2022-09-23T11:17:55.050Z,97813.31
2022-09-23T11:20:30.172Z,97815.77
2022-09-23T11:23:42.668Z,97815.34
2022-09-23T11:26:17.331Z,97817.91
2022-09-23T11:29:08.243Z,97816.23
2022-09-23T11:31:52.564Z,97814.61
2022-09-23T11:34:29.065Z,97817.48
2022-09-23T11:37:19.657Z,97814.80
2022-09-23T11:39:56.428Z,97806.16
2022-09-23T11:42:34.424Z,97803.69
2022-09-23T11:45:15.084Z,97806.98
2022-09-23T11:47:54.985Z,97801.42
2022-09-23T11:50:37.088Z,97805.94
2022-09-23T11:53:31.274Z,97795.52
2022-09-23T11:56:33.457Z,97788.85
2022-09-23T11:59:35.915Z,97796.39
2022-09-23T12:02:29.642Z,97797.26
2022-09-23T12:05:20.807Z,97794.44
2022-09-23T12:07:56.846Z,97810.08
2022-09-23T12:10:38.656Z,97803.42
2022-09-23T12:13:16.266Z,97804.91
2022-09-23T12:15:56.312Z,97804.20
2022-09-23T12:18:49.217Z,97797.70
2022-09-23T12:21:50.579Z,97797.52
2022-09-23T12:24:56.123Z,97790.16
2022-09-23T12:27:46.481Z,97783.13
2022-09-23T12:30:38.359Z,97783.68
2022-09-23T12:33:32.499Z,97781.66
2022-09-23T12:36:08.784Z,97778.98
2022-09-23T12:38:53.347Z,97795.38
2022-09-23T12:41:35.523Z,97791.17
2022-09-23T12:44:16.091Z,97798.13
2022-09-23T12:46:49.543Z,97783.73
2022-09-23T12:49:35.909Z,97789.17
2022-09-23T12:52:14.128Z,97790.04
2022-09-23T12:54:50.314Z,97785.79
2022-09-23T12:57:34.035Z,97783.39
2022-09-23T13:00:13.589Z,97779.80
2022-09-23T13:03:10.846Z,97790.89
2022-09-23T13:06:11.375Z,97776.43
2022-09-23T13:08:42.809Z,97770.89
2022-09-23T13:11:22.924Z,97769.41
2022-09-23T13:13:51.883Z,97761.25
2022-09-23T13:16:39.799Z,97766.65
2022-09-23T13:19:26.391Z,97764.95
2022-09-23T13:21:54.697Z,97771.75
2022-09-23T13:24:31.043Z,97775.89
2022-09-23T13:27:01.055Z,97765.87
2022-09-23T13:29:51.857Z,97771.04
2022-09-23T13:32:22.838Z,97768.10
2022-09-23T13:35:23.738Z,97767.75
2022-09-23T13:37:56.424Z,97769.74
2022-09-23T13:40:31.742Z,97766.08
2022-09-23T13:43:03.564Z,97769.63
2022-09-23T13:45:38.237Z,97762.34
2022-09-23T13:48:12.240Z,97758.42
2022-09-23T13:50:45.317Z,97752.45
2022-09-23T13:53:26.691Z,97758.40
2022-09-23T13:56:01.663Z,97762.92
2022-09-23T13:58:33.126Z,97765.09
2022-09-23T14:01:08.502Z,97762.11
2022-09-23T14:03:39.616Z,97765.67
2022-09-23T14:06:15.632Z,97770.00
2022-09-23T14:08:47.587Z,97766.33
2022-09-23T14:11:36.166Z,97763.61
2022-09-23T14:14:08.104Z,97768.65
2022-09-23T14:16:41.701Z,97770.67
2022-09-23T14:19:22.101Z,97774.48
2022-09-23T14:21:55.289Z,97772.31
2022-09-23T14:24:47.065Z,97773.06
2022-09-23T14:27:20.163Z,97774.79
2022-09-23T14:29:49.845Z,97776.50
2022-09-23T14:32:21.319Z,97773.54
2022-09-23T14:35:08.339Z,97772.71
2022-09-23T14:37:56.620Z,97769.15
2022-09-23T14:41:18.262Z,97774.78
2022-09-23T14:43:53.444Z,97770.85
2022-09-23T14:46:25.439Z,97767.60
2022-09-23T14:49:01.551Z,97774.49
2022-09-23T14:51:41.118Z,97774.56
2022-09-23T14:54:47.062Z,97776.59
2022-09-23T14:57:26.542Z,97782.77
2022-09-23T15:00:09.472Z,97781.99
2022-09-23T15:02:42.506Z,97777.91
2022-09-23T15:05:19.035Z,97778.48
2022-09-23T15:07:52.460Z,97806.04
2022-09-23T15:10:31.891Z,97808.11
2022-09-23T15:13:32.165Z,97813.52
2022-09-23T15:16:02.028Z,97806.03
2022-09-23T15:18:37.073Z,97806.90
2022-09-23T15:21:14.912Z,97806.75
2022-09-23T15:23:56.380Z,97811.87
2022-09-23T15:26:49.417Z,97816.11
2022-09-23T15:29:18.524Z,97817.48
2022-09-23T15:31:46.977Z,97818.79
2022-09-23T15:34:19.085Z,97820.20
2022-09-23T15:36:48.426Z,97821.73
2022-09-23T15:39:17.074Z,97819.92
2022-09-23T15:41:45.334Z,97824.85
2022-09-23T15:44:15.435Z,97830.42
2022-09-23T15:46:50.314Z,97828.41
2022-09-23T15:49:35.323Z,97831.73
2022-09-23T15:52:05.225Z,97830.09
2022-09-23T15:54:34.100Z,97821.36
2022-09-23T15:57:02.371Z,97823.10
2022-09-23T15:59:31.408Z,97828.28
2022-09-23T16:02:07.854Z,97821.48
2022-09-23T16:04:36.180Z,97823.78
2022-09-23T16:07:05.787Z,97822.83
2022-09-23T16:09:37.535Z,97816.66
2022-09-23T16:12:11.866Z,97818.25
2022-09-23T16:14:40.747Z,97816.67
2022-09-23T16:17:13.436Z,97815.77
2022-09-23T16:19:44.099Z,97810.65
2022-09-23T16:22:16.078Z,97817.63
2022-09-23T16:24:44.749Z,97820.69
2022-09-23T16:27:19.324Z,97823.50
2022-09-23T16:29:47.457Z,97820.40
2022-09-23T16:32:21.488Z,97819.37
2022-09-23T16:34:50.489Z,97822.13
2022-09-23T16:37:21.501Z,97821.95
2022-09-23T16:39:50.177Z,97821.63
2022-09-23T16:42:18.895Z,97824.38
2022-09-23T16:44:47.366Z,97822.04
2022-09-23T16:47:16.290Z,97823.02
2022-09-23T16:49:44.651Z,97833.39
2022-09-23T16:52:15.262Z,97839.11
2022-09-23T16:54:43.794Z,97833.96
2022-09-23T16:57:13.344Z,97826.84
2022-09-23T17:00:01.033Z,97834.89
2022-09-23T17:02:59.158Z,97835.12
2022-09-23T17:05:27.801Z,97835.33
2022-09-23T17:07:56.546Z,97833.63
2022-09-23T17:10:27.371Z,97834.48
2022-09-23T17:12:55.440Z,97833.52
2022-09-23T17:15:23.759Z,97839.46
2022-09-23T17:17:52.554Z,97843.70
2022-09-23T17:20:22.852Z,97845.33
2022-09-23T17:22:51.136Z,97847.60
2022-09-23T17:25:37.670Z,97851.01
2022-09-23T17:28:05.937Z,97852.88
2022-09-23T17:30:39.137Z,97851.94
2022-09-23T17:33:07.320Z,97850.80
2022-09-23T17:35:39.775Z,97853.16
2022-09-23T17:38:09.718Z,97851.48
2022-09-23T17:40:40.533Z,97851.02
2022-09-23T17:43:08.964Z,97848.23
2022-09-23T17:45:37.280Z,97844.98
2022-09-23T17:48:06.646Z,97848.65
2022-09-23T17:50:34.914Z,97852.23
2022-09-23T17:53:03.131Z,97857.27
2022-09-23T17:55:34.225Z,97861.42
2022-09-23T17:58:02.376Z,97867.54
2022-09-23T18:00:30.586Z,97867.15
2022-09-23T18:02:59.974Z,97872.65
2022-09-23T18:05:29.375Z,97867.35
2022-09-23T18:08:01.817Z,97870.19
2022-09-23T18:10:32.929Z,97866.42
2022-09-23T18:13:01.008Z,97867.98
2022-09-23T18:15:29.037Z,97860.33
2022-09-23T18:17:57.245Z,97862.10
2022-09-23T18:20:25.942Z,97865.66
2022-09-23T18:22:54.220Z,97867.59
2022-09-23T18:25:38.760Z,97867.40
2022-09-23T18:28:07.905Z,97872.09
2022-09-23T18:30:37.037Z,97874.63
2022-09-23T18:33:05.464Z,97872.30
2022-09-23T18:35:33.951Z,97873.71
2022-09-23T18:38:02.037Z,97868.89
2022-09-23T18:40:30.127Z,97867.61
2022-09-23T18:42:59.296Z,97870.22
2022-09-23T18:45:27.328Z,97868.85
2022-09-23T18:48:16.302Z,97868.12
2022-09-23T18:50:44.713Z,97870.38
2022-09-23T18:53:13.066Z,97874.97
2022-09-23T18:55:41.198Z,97875.17
2022-09-23T18:58:10.626Z,97878.88
2022-09-23T19:00:39.633Z,97879.50
2022-09-23T19:03:09.502Z,97878.70
2022-09-23T19:05:37.542Z,97880.09
2022-09-23T19:08:06.439Z,97883.92
2022-09-23T19:10:34.635Z,97885.20
2022-09-23T19:13:03.681Z,97884.05
2022-09-23T19:15:34.031Z,97884.65
2022-09-23T19:18:02.125Z,97885.13
2022-09-23T19:20:30.669Z,97887.19
2022-09-23T19:22:58.782Z,97884.69
2022-09-23T19:25:26.934Z,97885.50
2022-09-23T19:27:57.635Z,97884.90
2022-09-23T19:30:25.779Z,97889.14
2022-09-23T19:32:54.049Z,97891.52
2022-09-23T19:35:22.068Z,97892.48
2022-09-23T19:37:50.760Z,97888.41
2022-09-23T19:40:18.827Z,97887.41
2022-09-23T19:42:47.022Z,97884.94
2022-09-23T19:45:15.499Z,97887.65
2022-09-23T19:47:44.034Z,97886.64
2022-09-23T19:50:12.196Z,97887.66
2022-09-23T19:52:40.502Z,97892.04
2022-09-23T19:55:10.315Z,97891.48
2022-09-23T19:57:39.193Z,97893.19
2022-09-23T20:00:08.385Z,97890.72
2022-09-23T20:02:40.519Z,97895.26
2022-09-23T20:05:12.100Z,97896.55
2022-09-23T20:07:43.825Z,97900.04
2022-09-23T20:10:13.231Z,97902.44
2022-09-23T20:12:44.177Z,97903.59
2022-09-23T20:15:12.888Z,97902.12
2022-09-23T20:17:42.700Z,97901.29
2022-09-23T20:20:13.341Z,97900.08
2022-09-23T20:22:42.238Z,97906.49
2022-09-23T20:25:13.636Z,97902.60
2022-09-23T20:27:41.847Z,97904.64
2022-09-23T20:30:12.067Z,97906.02
2022-09-23T20:32:44.491Z,97905.52
2022-09-23T20:35:12.834Z,97903.95
2022-09-23T20:37:41.011Z,97900.45
2022-09-23T20:40:10.404Z,97904.14
2022-09-23T20:42:38.833Z,97897.45
2022-09-23T20:45:07.624Z,97896.31
2022-09-23T20:47:35.871Z,97897.21
2022-09-23T20:50:04.301Z,97896.77
2022-09-23T20:52:33.239Z,97894.73
2022-09-23T20:55:02.462Z,97900.66
2022-09-23T20:57:32.368Z,97902.20
2022-09-23T21:00:00.590Z,97899.48
2022-09-23T21:02:30.431Z,97900.83
2022-09-23T21:04:58.478Z,97900.74
2022-09-23T21:07:26.670Z,97898.33
2022-09-23T21:09:54.564Z,97898.39
2022-09-23T21:12:23.218Z,97902.95
2022-09-23T21:14:51.096Z,97908.58
2022-09-23T21:17:21.585Z,97909.84
2022-09-23T21:19:49.589Z,97905.78
2022-09-23T21:22:19.594Z,97905.93
2022-09-23T21:25:31.597Z,97905.00
2022-09-23T21:27:37.955Z,97902.92
2022-09-23T21:30:07.838Z,97905.96
2022-09-23T21:32:35.866Z,97903.56
2022-09-23T21:35:04.076Z,97903.13
2022-09-23T21:37:33.050Z,97905.84
2022-09-23T21:40:19.921Z,97900.64
2022-09-23T21:42:48.014Z,97902.05
2022-09-23T21:45:16.105Z,97903.98
2022-09-23T21:47:44.513Z,97905.13
2022-09-23T21:50:12.467Z,97906.08
2022-09-23T21:52:40.588Z,97909.52
2022-09-23T21:55:08.647Z,97909.95
2022-09-23T21:57:36.615Z,97908.03
2022-09-23T22:00:07.351Z,97909.29
2022-09-23T22:02:39.977Z,97909.91
2022-09-23T22:05:08.210Z,97908.46
2022-09-23T22:07:38.210Z,97909.50
2022-09-23T22:10:06.762Z,97910.59
2022-09-23T22:12:34.834Z,97915.02
2022-09-23T22:15:02.852Z,97914.68
2022-09-23T22:17:33.178Z,97915.20
2022-09-23T22:20:01.568Z,97908.77
2022-09-23T22:22:29.691Z,97912.59
2022-09-23T22:24:57.792Z,97912.71
2022-09-23T22:27:27.425Z,97918.48
2022-09-23T22:30:14.077Z,97921.00
2022-09-23T22:32:46.207Z,97916.19
2022-09-23T22:35:17.917Z,97918.79
2022-09-23T22:37:48.144Z,97917.45
2022-09-23T22:40:17.069Z,97921.85
2022-09-23T22:42:45.644Z,97919.38
2022-09-23T22:45:15.998Z,97921.05
2022-09-23T22:47:45.986Z,97921.85
2022-09-23T22:50:15.233Z,97922.19
2022-09-23T22:52:45.476Z,97916.25
2022-09-23T22:55:13.906Z,97917.55
2022-09-23T22:57:41.804Z,97921.56
2022-09-23T23:00:11.426Z,97925.44
2022-09-23T23:02:40.177Z,97923.52
2022-09-23T23:05:08.601Z,97930.30
2022-09-23T23:07:36.623Z,97930.33
2022-09-23T23:10:07.354Z,97928.95
2022-09-23T23:12:35.604Z,97930.21
2022-09-23T23:15:04.268Z,97926.38
2022-09-23T23:17:33.227Z,97926.29
2022-09-23T23:20:01.657Z,97929.36
2022-09-23T23:22:29.771Z,97929.34
2022-09-23T23:24:58.838Z,97927.54
2022-09-23T23:27:26.932Z,97930.11
2022-09-23T23:29:55.049Z,97928.20
2022-09-23T23:32:23.535Z,97925.88
2022-09-23T23:34:51.769Z,97926.02
2022-09-23T23:37:21.056Z,97922.23
2022-09-23T23:39:49.286Z,97922.27
2022-09-23T23:42:18.036Z,97914.77
2022-09-23T23:44:45.929Z,97917.87
2022-09-23T23:47:13.923Z,97914.54
2022-09-23T23:49:41.882Z,97913.63
2022-09-23T23:52:10.502Z,97908.94
2022-09-23T23:54:38.842Z,97911.31
2022-09-23T23:57:06.752Z,97908.34
2022-09-23T23:59:35.645Z,97908.64
